sensor_id;sensor_type;location;lat;lon;timestamp;pressure;altitude;pressure_sealevel;temperature;humidity
28456;BME280;15682;56.742;38.866;2023-03-19T00:00:17;101040.0;;;-4.0;68.3
28456;BME280;15682;56.742;38.866;2023-03-19T00:02:16;101040.0;;;-4.0;67.9
28456;BME280;15682;56.742;38.866;2023-03-19T00:04:16;101040.0;;;-4.1;67.9
28456;BME280;15682;56.742;38.866;2023-03-19T00:06:15;101040.0;;;-4.1;67.9
28456;BME280;15682;56.742;38.866;2023-03-19T00:08:15;101040.0;;;-4.1;67.9
28456;BME280;15682;56.742;38.866;2023-03-19T00:10:15;101040.0;;;-4.0;67.3
28456;BME280;15682;56.742;38.866;2023-03-19T00:12:15;101030.0;;;-4.0;68.3
28456;BME280;15682;56.742;38.866;2023-03-19T00:14:15;101030.0;;;-4.0;68.3
28456;BME280;15682;56.742;38.866;2023-03-19T00:16:14;101030.0;;;-4.0;69.1
28456;BME280;15682;56.742;38.866;2023-03-19T00:18:14;101030.0;;;-4.0;68.3
28456;BME280;15682;56.742;38.866;2023-03-19T00:20:14;101030.0;;;-4.0;68.3
28456;BME280;15682;56.742;38.866;2023-03-19T00:22:14;101030.0;;;-4.1;67.8
28456;BME280;15682;56.742;38.866;2023-03-19T00:24:14;101030.0;;;-4.1;67.5
28456;BME280;15682;56.742;38.866;2023-03-19T00:26:13;101020.0;;;-4.1;68.4
28456;BME280;15682;56.742;38.866;2023-03-19T00:28:13;101020.0;;;-4.2;68.4
28456;BME280;15682;56.742;38.866;2023-03-19T00:30:13;101010.0;;;-4.2;68.4
28456;BME280;15682;56.742;38.866;2023-03-19T00:32:13;101010.0;;;-4.2;67.9
28456;BME280;15682;56.742;38.866;2023-03-19T00:34:13;101010.0;;;-4.2;67.9
28456;BME280;15682;56.742;38.866;2023-03-19T00:36:12;101010.0;;;-4.2;67.9
28456;BME280;15682;56.742;38.866;2023-03-19T00:38:12;101010.0;;;-4.2;68.9
28456;BME280;15682;56.742;38.866;2023-03-19T00:40:12;101010.0;;;-4.2;68.9
28456;BME280;15682;56.742;38.866;2023-03-19T00:42:12;101010.0;;;-4.4;67.3
28456;BME280;15682;56.742;38.866;2023-03-19T00:44:11;101010.0;;;-4.4;68.1
28456;BME280;15682;56.742;38.866;2023-03-19T00:46:12;101010.0;;;-4.4;68.7
28456;BME280;15682;56.742;38.866;2023-03-19T00:48:11;101000.0;;;-4.4;68.7
28456;BME280;15682;56.742;38.866;2023-03-19T00:50:11;101000.0;;;-4.4;68.7
28456;BME280;15682;56.742;38.866;2023-03-19T00:52:11;101000.0;;;-4.5;69.7
28456;BME280;15682;56.742;38.866;2023-03-19T00:54:11;101000.0;;;-4.5;70.0
28456;BME280;15682;56.742;38.866;2023-03-19T00:56:12;101000.0;;;-4.7;69.4
28456;BME280;15682;56.742;38.866;2023-03-19T00:58:10;101000.0;;;-4.7;70.0
28456;BME280;15682;56.742;38.866;2023-03-19T01:00:11;101000.0;;;-4.7;70.0
28456;BME280;15682;56.742;38.866;2023-03-19T01:02:09;101000.0;;;-4.6;69.9
28456;BME280;15682;56.742;38.866;2023-03-19T01:04:09;101000.0;;;-4.6;69.4
28456;BME280;15682;56.742;38.866;2023-03-19T01:06:09;101000.0;;;-4.6;70.4
28456;BME280;15682;56.742;38.866;2023-03-19T01:08:09;100990.0;;;-4.6;69.6
28456;BME280;15682;56.742;38.866;2023-03-19T01:10:10;101000.0;;;-4.6;69.6
28456;BME280;15682;56.742;38.866;2023-03-19T01:12:08;101000.0;;;-4.6;69.1
28456;BME280;15682;56.742;38.866;2023-03-19T01:14:08;100990.0;;;-4.6;69.9
28456;BME280;15682;56.742;38.866;2023-03-19T01:16:09;100990.0;;;-4.6;69.9
28456;BME280;15682;56.742;38.866;2023-03-19T01:18:09;100990.0;;;-4.6;69.9
28456;BME280;15682;56.742;38.866;2023-03-19T01:20:10;100990.0;;;-4.6;69.9
28456;BME280;15682;56.742;38.866;2023-03-19T01:22:07;100990.0;;;-4.7;69.7
28456;BME280;15682;56.742;38.866;2023-03-19T01:24:07;100990.0;;;-4.7;70.8
28456;BME280;15682;56.742;38.866;2023-03-19T01:26:07;100990.0;;;-4.7;70.8
28456;BME280;15682;56.742;38.866;2023-03-19T01:28:07;100990.0;;;-4.7;69.6
28456;BME280;15682;56.742;38.866;2023-03-19T01:30:07;100990.0;;;-4.8;69.6
28456;BME280;15682;56.742;38.866;2023-03-19T01:32:06;100990.0;;;-4.8;70.3
28456;BME280;15682;56.742;38.866;2023-03-19T01:34:06;100990.0;;;-4.7;70.3
28456;BME280;15682;56.742;38.866;2023-03-19T01:36:07;100990.0;;;-4.7;69.1
28456;BME280;15682;56.742;38.866;2023-03-19T01:38:06;100980.0;;;-4.7;69.1
28456;BME280;15682;56.742;38.866;2023-03-19T01:40:07;100980.0;;;-4.7;69.6
28456;BME280;15682;56.742;38.866;2023-03-19T01:42:06;100980.0;;;-4.7;69.6
28456;BME280;15682;56.742;38.866;2023-03-19T01:44:23;100980.0;;;-4.7;69.6
28456;BME280;15682;56.742;38.866;2023-03-19T01:46:06;100980.0;;;-4.7;69.6
28456;BME280;15682;56.742;38.866;2023-03-19T01:48:05;100980.0;;;-4.8;69.6
28456;BME280;15682;56.742;38.866;2023-03-19T01:50:05;100980.0;;;-4.8;69.6
28456;BME280;15682;56.742;38.866;2023-03-19T01:52:07;100980.0;;;-4.9;69.8
28456;BME280;15682;56.742;38.866;2023-03-19T01:54:05;100980.0;;;-4.9;69.0
28456;BME280;15682;56.742;38.866;2023-03-19T01:56:08;100980.0;;;-4.9;69.0
28456;BME280;15682;56.742;38.866;2023-03-19T01:58:04;100980.0;;;-4.9;69.6
28456;BME280;15682;56.742;38.866;2023-03-19T02:00:05;100980.0;;;-4.9;70.3
28456;BME280;15682;56.742;38.866;2023-03-19T02:02:06;100980.0;;;-4.9;69.9
28456;BME280;15682;56.742;38.866;2023-03-19T02:04:03;100970.0;;;-4.8;69.4
28456;BME280;15682;56.742;38.866;2023-03-19T02:06:02;100970.0;;;-4.8;68.7
28456;BME280;15682;56.742;38.866;2023-03-19T02:08:05;100960.0;;;-4.8;69.4
28456;BME280;15682;56.742;38.866;2023-03-19T02:10:05;100960.0;;;-5.0;70.0
28456;BME280;15682;56.742;38.866;2023-03-19T02:12:02;100960.0;;;-4.9;70.2
28456;BME280;15682;56.742;38.866;2023-03-19T02:14:02;100960.0;;;-4.9;70.2
28456;BME280;15682;56.742;38.866;2023-03-19T02:16:01;100960.0;;;-4.9;70.2
28456;BME280;15682;56.742;38.866;2023-03-19T02:18:01;100960.0;;;-4.8;70.5
28456;BME280;15682;56.742;38.866;2023-03-19T02:20:05;100960.0;;;-4.8;69.7
28456;BME280;15682;56.742;38.866;2023-03-19T02:22:02;100960.0;;;-4.8;69.9
28456;BME280;15682;56.742;38.866;2023-03-19T02:24:05;100960.0;;;-4.8;71.2
28456;BME280;15682;56.742;38.866;2023-03-19T02:26:04;100950.0;;;-4.9;70.1
28456;BME280;15682;56.742;38.866;2023-03-19T02:28:00;100950.0;;;-4.9;70.1
28456;BME280;15682;56.742;38.866;2023-03-19T02:30:00;100950.0;;;-4.9;71.1
28456;BME280;15682;56.742;38.866;2023-03-19T02:31:59;100950.0;;;-5.0;70.7
28456;BME280;15682;56.742;38.866;2023-03-19T02:34:01;100950.0;;;-5.0;70.7
28456;BME280;15682;56.742;38.866;2023-03-19T02:36:01;100950.0;;;-5.0;70.5
28456;BME280;15682;56.742;38.866;2023-03-19T02:38:00;100950.0;;;-5.0;70.5
28456;BME280;15682;56.742;38.866;2023-03-19T02:40:01;100950.0;;;-5.1;70.5
28456;BME280;15682;56.742;38.866;2023-03-19T02:41:59;100950.0;;;-5.0;71.5
28456;BME280;15682;56.742;38.866;2023-03-19T02:44:01;100950.0;;;-5.0;72.0
28456;BME280;15682;56.742;38.866;2023-03-19T02:45:58;100950.0;;;-5.2;74.5
28456;BME280;15682;56.742;38.866;2023-03-19T02:47:59;100950.0;;;-5.2;74.8
28456;BME280;15682;56.742;38.866;2023-03-19T02:49:57;100950.0;;;-5.5;75.6
28456;BME280;15682;56.742;38.866;2023-03-19T02:51:57;100950.0;;;-5.7;76.7
28456;BME280;15682;56.742;38.866;2023-03-19T02:53:57;100950.0;;;-5.7;76.9
28456;BME280;15682;56.742;38.866;2023-03-19T02:55:57;100950.0;;;-5.4;76.9
28456;BME280;15682;56.742;38.866;2023-03-19T02:57:56;100950.0;;;-5.2;72.9
28456;BME280;15682;56.742;38.866;2023-03-19T02:59:56;100950.0;;;-5.2;72.9
28456;BME280;15682;56.742;38.866;2023-03-19T03:01:56;100940.0;;;-5.2;73.3
28456;BME280;15682;56.742;38.866;2023-03-19T03:03:56;100940.0;;;-5.2;73.3
28456;BME280;15682;56.742;38.866;2023-03-19T03:05:55;100940.0;;;-5.2;73.3
28456;BME280;15682;56.742;38.866;2023-03-19T03:07:55;100940.0;;;-5.3;71.9
28456;BME280;15682;56.742;38.866;2023-03-19T03:09:55;100930.0;;;-5.3;72.7
28456;BME280;15682;56.742;38.866;2023-03-19T03:11:55;100930.0;;;-5.3;73.4
28456;BME280;15682;56.742;38.866;2023-03-19T03:13:55;100930.0;;;-5.3;73.4
28456;BME280;15682;56.742;38.866;2023-03-19T03:15:54;100930.0;;;-5.3;72.8
28456;BME280;15682;56.742;38.866;2023-03-19T03:17:54;100930.0;;;-5.3;72.8
28456;BME280;15682;56.742;38.866;2023-03-19T03:19:54;100930.0;;;-5.5;72.8
28456;BME280;15682;56.742;38.866;2023-03-19T03:21:54;100920.0;;;-5.4;73.0
28456;BME280;15682;56.742;38.866;2023-03-19T03:23:54;100920.0;;;-5.4;73.6
28456;BME280;15682;56.742;38.866;2023-03-19T03:25:53;100920.0;;;-5.6;73.7
28456;BME280;15682;56.742;38.866;2023-03-19T03:27:53;100920.0;;;-5.6;73.7
28456;BME280;15682;56.742;38.866;2023-03-19T03:29:53;100920.0;;;-5.6;73.2
28456;BME280;15682;56.742;38.866;2023-03-19T03:31:53;100920.0;;;-5.4;73.2
28456;BME280;15682;56.742;38.866;2023-03-19T03:33:52;100920.0;;;-5.4;73.7
28456;BME280;15682;56.742;38.866;2023-03-19T03:35:52;100920.0;;;-5.5;73.7
28456;BME280;15682;56.742;38.866;2023-03-19T03:37:52;100910.0;;;-5.5;73.7
28456;BME280;15682;56.742;38.866;2023-03-19T03:39:52;100910.0;;;-5.5;73.7
28456;BME280;15682;56.742;38.866;2023-03-19T03:41:51;100910.0;;;-5.6;73.8
28456;BME280;15682;56.742;38.866;2023-03-19T03:43:51;100900.0;;;-5.6;73.8
28456;BME280;15682;56.742;38.866;2023-03-19T03:45:51;100900.0;;;-5.6;73.8
28456;BME280;15682;56.742;38.866;2023-03-19T03:47:51;100900.0;;;-5.6;73.8
28456;BME280;15682;56.742;38.866;2023-03-19T03:49:50;100900.0;;;-5.6;73.8
28456;BME280;15682;56.742;38.866;2023-03-19T03:51:50;100890.0;;;-5.5;73.5
28456;BME280;15682;56.742;38.866;2023-03-19T03:53:50;100890.0;;;-5.5;73.5
28456;BME280;15682;56.742;38.866;2023-03-19T03:55:50;100890.0;;;-5.5;73.5
28456;BME280;15682;56.742;38.866;2023-03-19T03:57:49;100890.0;;;-5.4;73.5
28456;BME280;15682;56.742;38.866;2023-03-19T03:59:49;100890.0;;;-5.4;73.5
28456;BME280;15682;56.742;38.866;2023-03-19T04:01:49;100890.0;;;-5.3;73.5
28456;BME280;15682;56.742;38.866;2023-03-19T04:03:49;100890.0;;;-5.3;73.5
28456;BME280;15682;56.742;38.866;2023-03-19T04:05:48;100890.0;;;-5.3;73.5
28456;BME280;15682;56.742;38.866;2023-03-19T04:07:48;100890.0;;;-5.1;73.0
28456;BME280;15682;56.742;38.866;2023-03-19T04:09:48;100890.0;;;-5.1;73.0
28456;BME280;15682;56.742;38.866;2023-03-19T04:11:48;100880.0;;;-4.7;72.5
28456;BME280;15682;56.742;38.866;2023-03-19T04:13:48;100880.0;;;-4.3;68.1
28456;BME280;15682;56.742;38.866;2023-03-19T04:15:47;100880.0;;;-4.0;67.2
28456;BME280;15682;56.742;38.866;2023-03-19T04:17:47;100880.0;;;-4.3;67.0
28456;BME280;15682;56.742;38.866;2023-03-19T04:19:47;100880.0;;;-4.3;66.0
28456;BME280;15682;56.742;38.866;2023-03-19T04:21:47;100880.0;;;-4.3;65.6
28456;BME280;15682;56.742;38.866;2023-03-19T04:23:47;100870.0;;;-4.2;65.9
28456;BME280;15682;56.742;38.866;2023-03-19T04:25:46;100870.0;;;-4.0;67.4
28456;BME280;15682;56.742;38.866;2023-03-19T04:27:46;100870.0;;;-4.4;65.6
28456;BME280;15682;56.742;38.866;2023-03-19T04:29:46;100870.0;;;-4.0;67.4
28456;BME280;15682;56.742;38.866;2023-03-19T04:31:46;100870.0;;;-4.3;67.6
28456;BME280;15682;56.742;38.866;2023-03-19T04:33:46;100870.0;;;-4.2;67.7
28456;BME280;15682;56.742;38.866;2023-03-19T04:35:47;100870.0;;;-4.2;69.4
28456;BME280;15682;56.742;38.866;2023-03-19T04:37:46;100870.0;;;-3.9;69.0
28456;BME280;15682;56.742;38.866;2023-03-19T04:39:45;100870.0;;;-4.1;68.4
28456;BME280;15682;56.742;38.866;2023-03-19T04:41:45;100870.0;;;-3.9;69.0
28456;BME280;15682;56.742;38.866;2023-03-19T04:43:45;100870.0;;;-4.1;69.0
28456;BME280;15682;56.742;38.866;2023-03-19T04:45:45;100870.0;;;-4.1;69.5
28456;BME280;15682;56.742;38.866;2023-03-19T04:47:45;100870.0;;;-4.1;70.3
28456;BME280;15682;56.742;38.866;2023-03-19T04:49:44;100870.0;;;-4.3;70.3
28456;BME280;15682;56.742;38.866;2023-03-19T04:51:44;100870.0;;;-4.1;71.3
28456;BME280;15682;56.742;38.866;2023-03-19T04:53:44;100870.0;;;-4.1;69.9
28456;BME280;15682;56.742;38.866;2023-03-19T04:55:44;100860.0;;;-4.1;69.9
28456;BME280;15682;56.742;38.866;2023-03-19T04:57:44;100860.0;;;-4.1;71.0
28456;BME280;15682;56.742;38.866;2023-03-19T04:59:44;100870.0;;;-4.1;70.2
28456;BME280;15682;56.742;38.866;2023-03-19T05:01:43;100870.0;;;-4.1;70.8
28456;BME280;15682;56.742;38.866;2023-03-19T05:03:43;100860.0;;;-4.1;70.7
28456;BME280;15682;56.742;38.866;2023-03-19T05:05:43;100860.0;;;-4.1;70.7
28456;BME280;15682;56.742;38.866;2023-03-19T05:07:43;100860.0;;;-3.9;71.5
28456;BME280;15682;56.742;38.866;2023-03-19T05:09:43;100850.0;;;-4.1;70.9
28456;BME280;15682;56.742;38.866;2023-03-19T05:11:42;100850.0;;;-4.0;70.9
28456;BME280;15682;56.742;38.866;2023-03-19T05:13:42;100850.0;;;-4.0;70.7
28456;BME280;15682;56.742;38.866;2023-03-19T05:15:42;100850.0;;;-4.0;72.4
28456;BME280;15682;56.742;38.866;2023-03-19T05:17:42;100850.0;;;-3.9;70.8
28456;BME280;15682;56.742;38.866;2023-03-19T05:19:42;100860.0;;;-3.8;70.8
28456;BME280;15682;56.742;38.866;2023-03-19T05:21:41;100860.0;;;-3.8;70.8
28456;BME280;15682;56.742;38.866;2023-03-19T05:23:42;100860.0;;;-3.7;72.4
28456;BME280;15682;56.742;38.866;2023-03-19T05:25:41;100860.0;;;-3.5;72.4
28456;BME280;15682;56.742;38.866;2023-03-19T05:27:41;100860.0;;;-3.5;71.9
28456;BME280;15682;56.742;38.866;2023-03-19T05:29:41;100860.0;;;-3.7;71.2
28456;BME280;15682;56.742;38.866;2023-03-19T05:31:40;100860.0;;;-3.7;71.2
28456;BME280;15682;56.742;38.866;2023-03-19T05:33:40;100860.0;;;-3.4;71.3
28456;BME280;15682;56.742;38.866;2023-03-19T05:35:40;100850.0;;;-3.2;71.9
28456;BME280;15682;56.742;38.866;2023-03-19T05:37:40;100850.0;;;-3.4;70.6
28456;BME280;15682;56.742;38.866;2023-03-19T05:39:40;100850.0;;;-3.3;71.3
28456;BME280;15682;56.742;38.866;2023-03-19T05:41:40;100850.0;;;-3.4;71.2
28456;BME280;15682;56.742;38.866;2023-03-19T05:43:39;100850.0;;;-3.4;71.2
28456;BME280;15682;56.742;38.866;2023-03-19T05:45:39;100850.0;;;-3.4;70.4
28456;BME280;15682;56.742;38.866;2023-03-19T05:47:39;100850.0;;;-3.3;71.0
28456;BME280;15682;56.742;38.866;2023-03-19T05:49:39;100840.0;;;-3.3;71.0
28456;BME280;15682;56.742;38.866;2023-03-19T05:51:39;100840.0;;;-2.9;71.5
28456;BME280;15682;56.742;38.866;2023-03-19T05:53:39;100840.0;;;-3.0;69.8
28456;BME280;15682;56.742;38.866;2023-03-19T05:55:39;100840.0;;;-2.7;70.7
28456;BME280;15682;56.742;38.866;2023-03-19T05:57:38;100840.0;;;-2.8;70.0
28456;BME280;15682;56.742;38.866;2023-03-19T05:59:38;100840.0;;;-2.6;71.9
28456;BME280;15682;56.742;38.866;2023-03-19T06:01:38;100840.0;;;-2.5;69.6
28456;BME280;15682;56.742;38.866;2023-03-19T06:03:38;100840.0;;;-2.5;69.5
28456;BME280;15682;56.742;38.866;2023-03-19T06:05:38;100840.0;;;-2.5;69.5
28456;BME280;15682;56.742;38.866;2023-03-19T06:12:00;100830.0;;;-2.1;70.0
28456;BME280;15682;56.742;38.866;2023-03-19T06:14:00;100820.0;;;-2.0;70.0
28456;BME280;15682;56.742;38.866;2023-03-19T06:16:00;100820.0;;;-2.2;68.3
28456;BME280;15682;56.742;38.866;2023-03-19T06:18:00;100820.0;;;-2.2;68.3
28456;BME280;15682;56.742;38.866;2023-03-19T06:20:00;100820.0;;;-2.1;69.0
28456;BME280;15682;56.742;38.866;2023-03-19T06:22:00;100800.0;;;-2.1;68.5
28456;BME280;15682;56.742;38.866;2023-03-19T06:24:00;100800.0;;;-2.0;69.6
28456;BME280;15682;56.742;38.866;2023-03-19T06:25:59;100790.0;;;-1.8;68.1
28456;BME280;15682;56.742;38.866;2023-03-19T06:27:59;100790.0;;;-1.8;68.1
28456;BME280;15682;56.742;38.866;2023-03-19T06:29:59;100790.0;;;-2.0;68.1
28456;BME280;15682;56.742;38.866;2023-03-19T06:31:59;100790.0;;;-1.7;68.1
28456;BME280;15682;56.742;38.866;2023-03-19T06:33:59;100790.0;;;-1.5;68.5
28456;BME280;15682;56.742;38.866;2023-03-19T06:35:59;100790.0;;;-1.4;68.6
28456;BME280;15682;56.742;38.866;2023-03-19T06:37:59;100790.0;;;-1.4;66.7
28456;BME280;15682;56.742;38.866;2023-03-19T06:39:59;100790.0;;;-1.4;67.6
28456;BME280;15682;56.742;38.866;2023-03-19T06:41:59;100790.0;;;-1.4;67.6
28456;BME280;15682;56.742;38.866;2023-03-19T06:43:58;100780.0;;;-1.4;67.2
28456;BME280;15682;56.742;38.866;2023-03-19T06:45:58;100770.0;;;-1.2;67.4
28456;BME280;15682;56.742;38.866;2023-03-19T06:47:58;100770.0;;;-1.3;66.5
28456;BME280;15682;56.742;38.866;2023-03-19T06:49:58;100770.0;;;-1.3;66.5
28456;BME280;15682;56.742;38.866;2023-03-19T06:51:58;100760.0;;;-1.3;67.0
28456;BME280;15682;56.742;38.866;2023-03-19T06:53:58;100760.0;;;-1.1;66.4
28456;BME280;15682;56.742;38.866;2023-03-19T06:55:58;100760.0;;;-1.1;66.4
28456;BME280;15682;56.742;38.866;2023-03-19T06:57:58;100760.0;;;-1.0;67.3
28456;BME280;15682;56.742;38.866;2023-03-19T06:59:58;100760.0;;;-1.1;66.4
28456;BME280;15682;56.742;38.866;2023-03-19T07:01:58;100760.0;;;-1.1;67.0
28456;BME280;15682;56.742;38.866;2023-03-19T07:03:57;100760.0;;;-0.9;66.7
28456;BME280;15682;56.742;38.866;2023-03-19T07:05:57;100760.0;;;-1.0;66.7
28456;BME280;15682;56.742;38.866;2023-03-19T07:07:57;100760.0;;;-0.9;66.7
28456;BME280;15682;56.742;38.866;2023-03-19T07:09:57;100750.0;;;-0.7;66.5
28456;BME280;15682;56.742;38.866;2023-03-19T07:11:57;100740.0;;;-0.7;66.0
28456;BME280;15682;56.742;38.866;2023-03-19T07:13:57;100740.0;;;-0.7;66.6
28456;BME280;15682;56.742;38.866;2023-03-19T07:15:57;100740.0;;;-0.7;66.6
28456;BME280;15682;56.742;38.866;2023-03-19T07:17:57;100740.0;;;-0.7;66.0
28456;BME280;15682;56.742;38.866;2023-03-19T07:19:56;100740.0;;;-0.6;66.8
28456;BME280;15682;56.742;38.866;2023-03-19T07:21:56;100740.0;;;-0.8;66.6
28456;BME280;15682;56.742;38.866;2023-03-19T07:23:56;100740.0;;;-0.4;68.5
28456;BME280;15682;56.742;38.866;2023-03-19T07:25:56;100730.0;;;-0.4;66.5
28456;BME280;15682;56.742;38.866;2023-03-19T07:27:56;100730.0;;;-0.5;66.5
28456;BME280;15682;56.742;38.866;2023-03-19T07:29:56;100730.0;;;-0.4;65.7
28456;BME280;15682;56.742;38.866;2023-03-19T07:31:56;100730.0;;;-0.4;65.7
28456;BME280;15682;56.742;38.866;2023-03-19T07:33:56;100730.0;;;-0.4;66.6
28456;BME280;15682;56.742;38.866;2023-03-19T07:35:56;100720.0;;;-0.2;66.6
28456;BME280;15682;56.742;38.866;2023-03-19T07:37:56;100720.0;;;-0.1;67.0
28456;BME280;15682;56.742;38.866;2023-03-19T07:39:55;100710.0;;;0.1;66.1
28456;BME280;15682;56.742;38.866;2023-03-19T07:41:55;100710.0;;;0.2;66.3
28456;BME280;15682;56.742;38.866;2023-03-19T07:43:55;100710.0;;;0.2;65.4
28456;BME280;15682;56.742;38.866;2023-03-19T07:45:55;100710.0;;;0.2;65.8
28456;BME280;15682;56.742;38.866;2023-03-19T07:47:55;100710.0;;;0.1;64.9
28456;BME280;15682;56.742;38.866;2023-03-19T07:49:55;100710.0;;;-0.1;65.5
28456;BME280;15682;56.742;38.866;2023-03-19T07:51:55;100710.0;;;0.0;66.2
28456;BME280;15682;56.742;38.866;2023-03-19T07:53:55;100710.0;;;0.1;65.2
28456;BME280;15682;56.742;38.866;2023-03-19T07:55:55;100710.0;;;0.3;65.8
28456;BME280;15682;56.742;38.866;2023-03-19T07:57:55;100710.0;;;0.2;65.1
28456;BME280;15682;56.742;38.866;2023-03-19T07:59:55;100710.0;;;0.3;65.1
28456;BME280;15682;56.742;38.866;2023-03-19T08:01:55;100710.0;;;0.4;65.0
28456;BME280;15682;56.742;38.866;2023-03-19T08:03:54;100710.0;;;0.4;64.9
28456;BME280;15682;56.742;38.866;2023-03-19T08:05:54;100710.0;;;0.2;63.2
28456;BME280;15682;56.742;38.866;2023-03-19T08:07:54;100710.0;;;0.2;65.2
28456;BME280;15682;56.742;38.866;2023-03-19T08:09:54;100710.0;;;0.3;64.7
28456;BME280;15682;56.742;38.866;2023-03-19T08:11:54;100700.0;;;0.3;64.2
28456;BME280;15682;56.742;38.866;2023-03-19T08:13:54;100700.0;;;0.1;64.3
28456;BME280;15682;56.742;38.866;2023-03-19T08:15:54;100700.0;;;0.1;64.8
28456;BME280;15682;56.742;38.866;2023-03-19T08:17:57;100700.0;;;0.4;65.6
28456;BME280;15682;56.742;38.866;2023-03-19T08:19:54;100690.0;;;0.5;65.6
28456;BME280;15682;56.742;38.866;2023-03-19T08:21:54;100690.0;;;0.5;66.5
28456;BME280;15682;56.742;38.866;2023-03-19T08:23:54;100690.0;;;0.7;66.0
28456;BME280;15682;56.742;38.866;2023-03-19T08:25:54;100680.0;;;0.9;64.5
28456;BME280;15682;56.742;38.866;2023-03-19T08:27:54;100680.0;;;0.7;64.5
28456;BME280;15682;56.742;38.866;2023-03-19T08:29:54;100680.0;;;0.7;63.8
28456;BME280;15682;56.742;38.866;2023-03-19T08:31:54;100680.0;;;0.5;64.1
28456;BME280;15682;56.742;38.866;2023-03-19T08:33:54;100680.0;;;0.9;65.3
28456;BME280;15682;56.742;38.866;2023-03-19T08:36:03;100680.0;;;0.9;63.7
28456;BME280;15682;56.742;38.866;2023-03-19T08:37:54;100680.0;;;1.0;63.7
28456;BME280;15682;56.742;38.866;2023-03-19T08:39:53;100680.0;;;1.0;64.0
28456;BME280;15682;56.742;38.866;2023-03-19T08:41:53;100680.0;;;1.0;63.5
28456;BME280;15682;56.742;38.866;2023-03-19T08:43:53;100680.0;;;1.2;62.3
28456;BME280;15682;56.742;38.866;2023-03-19T08:45:53;100670.0;;;1.0;62.2
28456;BME280;15682;56.742;38.866;2023-03-19T08:47:53;100670.0;;;0.9;63.0
28456;BME280;15682;56.742;38.866;2023-03-19T08:49:53;100670.0;;;0.9;64.1
28456;BME280;15682;56.742;38.866;2023-03-19T08:51:53;100670.0;;;0.9;62.5
28456;BME280;15682;56.742;38.866;2023-03-19T08:53:53;100670.0;;;0.9;62.4
28456;BME280;15682;56.742;38.866;2023-03-19T08:55:54;100670.0;;;1.0;61.9
28456;BME280;15682;56.742;38.866;2023-03-19T08:57:53;100670.0;;;1.0;61.9
28456;BME280;15682;56.742;38.866;2023-03-19T08:59:53;100670.0;;;1.0;61.3
28456;BME280;15682;56.742;38.866;2023-03-19T09:01:53;100670.0;;;1.0;61.8
28456;BME280;15682;56.742;38.866;2023-03-19T09:03:53;100660.0;;;0.8;63.8
28456;BME280;15682;56.742;38.866;2023-03-19T09:05:57;100660.0;;;0.9;62.4
28456;BME280;15682;56.742;38.866;2023-03-19T09:07:53;100660.0;;;0.9;61.6
28456;BME280;15682;56.742;38.866;2023-03-19T09:09:53;100640.0;;;0.9;62.0
28456;BME280;15682;56.742;38.866;2023-03-19T09:11:53;100640.0;;;0.9;62.5
28456;BME280;15682;56.742;38.866;2023-03-19T09:13:53;100630.0;;;1.1;65.0
28456;BME280;15682;56.742;38.866;2023-03-19T09:15:53;100630.0;;;1.2;62.8
28456;BME280;15682;56.742;38.866;2023-03-19T09:17:53;100630.0;;;1.3;62.0
28456;BME280;15682;56.742;38.866;2023-03-19T09:19:53;100630.0;;;1.1;60.4
28456;BME280;15682;56.742;38.866;2023-03-19T09:21:53;100630.0;;;1.1;59.8
28456;BME280;15682;56.742;38.866;2023-03-19T09:23:53;100620.0;;;1.0;59.8
28456;BME280;15682;56.742;38.866;2023-03-19T09:25:53;100620.0;;;1.1;61.4
28456;BME280;15682;56.742;38.866;2023-03-19T09:27:52;100620.0;;;1.3;63.1
28456;BME280;15682;56.742;38.866;2023-03-19T09:29:52;100620.0;;;1.3;59.9
28456;BME280;15682;56.742;38.866;2023-03-19T09:31:52;100620.0;;;1.3;59.9
28456;BME280;15682;56.742;38.866;2023-03-19T09:33:52;100620.0;;;1.3;59.7
28456;BME280;15682;56.742;38.866;2023-03-19T09:35:53;100610.0;;;1.3;59.7
28456;BME280;15682;56.742;38.866;2023-03-19T09:37:52;100610.0;;;1.3;58.9
28456;BME280;15682;56.742;38.866;2023-03-19T09:39:52;100610.0;;;1.3;58.0
28456;BME280;15682;56.742;38.866;2023-03-19T09:42:03;100610.0;;;1.4;58.0
28456;BME280;15682;56.742;38.866;2023-03-19T09:43:58;100610.0;;;1.4;58.9
28456;BME280;15682;56.742;38.866;2023-03-19T09:45:53;100610.0;;;1.5;57.5
28456;BME280;15682;56.742;38.866;2023-03-19T09:47:55;100610.0;;;1.5;56.9
28456;BME280;15682;56.742;38.866;2023-03-19T09:49:54;100610.0;;;1.7;56.9
28456;BME280;15682;56.742;38.866;2023-03-19T09:51:54;100610.0;;;1.7;56.9
28456;BME280;15682;56.742;38.866;2023-03-19T09:53:55;100610.0;;;1.8;57.7
28456;BME280;15682;56.742;38.866;2023-03-19T09:55:52;100600.0;;;1.9;57.9
28456;BME280;15682;56.742;38.866;2023-03-19T09:57:54;100600.0;;;2.1;60.5
28456;BME280;15682;56.742;38.866;2023-03-19T09:59:52;100590.0;;;2.1;55.8
28456;BME280;15682;56.742;38.866;2023-03-19T10:01:57;100590.0;;;1.9;55.8
28456;BME280;15682;56.742;38.866;2023-03-19T10:04:08;100590.0;;;2.1;55.9
28456;BME280;15682;56.742;38.866;2023-03-19T10:05:58;100590.0;;;2.1;55.9
28456;BME280;15682;56.742;38.866;2023-03-19T10:08:03;100580.0;;;2.2;56.7
28456;BME280;15682;56.742;38.866;2023-03-19T10:10:03;100580.0;;;2.1;55.3
28456;BME280;15682;56.742;38.866;2023-03-19T10:12:00;100580.0;;;2.1;56.1
28456;BME280;15682;56.742;38.866;2023-03-19T10:13:58;100570.0;;;2.0;55.6
28456;BME280;15682;56.742;38.866;2023-03-19T10:15:53;100570.0;;;1.9;56.3
28456;BME280;15682;56.742;38.866;2023-03-19T10:17:56;100570.0;;;2.0;59.5
28456;BME280;15682;56.742;38.866;2023-03-19T10:19:55;100570.0;;;2.0;55.7
28456;BME280;15682;56.742;38.866;2023-03-19T10:21:55;100560.0;;;2.2;60.2
28456;BME280;15682;56.742;38.866;2023-03-19T10:23:54;100550.0;;;2.3;58.6
28456;BME280;15682;56.742;38.866;2023-03-19T10:25:55;100550.0;;;2.3;56.4
28456;BME280;15682;56.742;38.866;2023-03-19T10:27:55;100550.0;;;2.2;56.4
28456;BME280;15682;56.742;38.866;2023-03-19T10:29:52;100550.0;;;2.2;55.1
28456;BME280;15682;56.742;38.866;2023-03-19T10:31:57;100540.0;;;2.2;58.9
28456;BME280;15682;56.742;38.866;2023-03-19T10:33:59;100540.0;;;2.2;56.9
28456;BME280;15682;56.742;38.866;2023-03-19T10:35:57;100540.0;;;2.3;59.0
28456;BME280;15682;56.742;38.866;2023-03-19T10:37:52;100540.0;;;2.4;57.6
28456;BME280;15682;56.742;38.866;2023-03-19T10:39:55;100540.0;;;2.4;55.7
28456;BME280;15682;56.742;38.866;2023-03-19T10:42:02;100540.0;;;2.4;59.4
28456;BME280;15682;56.742;38.866;2023-03-19T10:43:53;100540.0;;;2.4;55.2
28456;BME280;15682;56.742;38.866;2023-03-19T10:45:52;100530.0;;;2.5;56.6
28456;BME280;15682;56.742;38.866;2023-03-19T10:47:52;100530.0;;;2.5;55.9
28456;BME280;15682;56.742;38.866;2023-03-19T10:49:52;100530.0;;;2.5;55.9